Sabillasville, Maryland
Current Conditions -  °F | °C
As of 8:53 AM on Monday 24 Nov 2014 (Local Time) from KRYT Reporting Station
Clear Clear  
Wind Chill: 61°   Ceiling: Unl
Heat Index: 61°   Visibility: 10mi
Dew Point: 53°   Wind: 7mph
Humidity: 75%   Direction: 230°SW
Pressure: 29.61"   Gusts: 16mph
Location:  39.7°N, 77.46°W
Report Text: KRYT 241353Z AUTO 23006G14KT 10SM CLR 16/12 A2961 RMK AO2 SLP028 T01610117 $
Loading
Personal Weather Stations






























Interactive Weather Map New forecast layout! Learn more

10-Day Weather Forecast

Advertisements
Track Severe Weather on mobile